Ilse, Colorado
Current Conditions -  °F | °C
As of 3:55 PM on Sunday 21 Dec 2014 (Local Time) from K1V6 Reporting Station
Clear Clear  
Wind Chill: 54°   Ceiling: Unl
Heat Index: 54°   Visibility: 10mi
Dew Point: 23°   Wind: 28mph
Humidity: 30%   Direction: 280°W
Pressure: 29.56"   Gusts: 39mph
Location:  38.533°N, 105.389°W
Report Text: K1V6 212255Z AUTO 28024G34KT 10SM CLR 12/M05 A2956 RMK AO2
Loading
Personal Weather Stations






























Interactive Weather Map New forecast layout! Learn more

10-Day Weather Forecast

Advertisements
Track Severe Weather on mobile